sensor_id;sensor_type;location;lat;lon;timestamp;P1;durP1;ratioP1;P2;durP2;ratioP2
10963;SDS011;5534;48.784;9.190;2023-01-30T00:00:30;12.00;;;6.40;;
10963;SDS011;5534;48.784;9.190;2023-01-30T00:02:56;10.03;;;6.97;;
10963;SDS011;5534;48.784;9.190;2023-01-30T00:05:22;10.73;;;6.40;;
10963;SDS011;5534;48.784;9.190;2023-01-30T00:07:47;12.10;;;7.10;;
10963;SDS011;5534;48.784;9.190;2023-01-30T00:10:13;11.60;;;7.10;;
10963;SDS011;5534;48.784;9.190;2023-01-30T00:12:39;11.43;;;6.97;;
10963;SDS011;5534;48.784;9.190;2023-01-30T00:15:05;14.07;;;7.53;;
10963;SDS011;5534;48.784;9.190;2023-01-30T00:17:31;10.33;;;6.43;;
10963;SDS011;5534;48.784;9.190;2023-01-30T00:19:57;9.37;;;6.40;;
10963;SDS011;5534;48.784;9.190;2023-01-30T00:22:23;10.77;;;6.67;;
10963;SDS011;5534;48.784;9.190;2023-01-30T00:24:49;10.47;;;7.00;;
10963;SDS011;5534;48.784;9.190;2023-01-30T00:27:14;11.43;;;6.80;;
10963;SDS011;5534;48.784;9.190;2023-01-30T00:29:40;9.83;;;6.93;;
10963;SDS011;5534;48.784;9.190;2023-01-30T00:32:06;11.97;;;7.17;;
10963;SDS011;5534;48.784;9.190;2023-01-30T00:34:32;10.53;;;7.10;;
10963;SDS011;5534;48.784;9.190;2023-01-30T00:36:58;11.17;;;6.80;;
10963;SDS011;5534;48.784;9.190;2023-01-30T00:39:24;12.37;;;6.97;;
10963;SDS011;5534;48.784;9.190;2023-01-30T00:41:50;9.23;;;6.73;;
10963;SDS011;5534;48.784;9.190;2023-01-30T00:44:34;11.40;;;6.33;;
10963;SDS011;5534;48.784;9.190;2023-01-30T00:47:19;10.83;;;7.03;;
10963;SDS011;5534;48.784;9.190;2023-01-30T00:49:45;10.80;;;6.77;;
10963;SDS011;5534;48.784;9.190;2023-01-30T00:52:11;11.43;;;7.17;;
10963;SDS011;5534;48.784;9.190;2023-01-30T00:54:37;10.17;;;6.73;;
10963;SDS011;5534;48.784;9.190;2023-01-30T00:57:02;11.10;;;6.37;;
10963;SDS011;5534;48.784;9.190;2023-01-30T00:59:29;12.00;;;5.97;;
10963;SDS011;5534;48.784;9.190;2023-01-30T01:01:54;11.40;;;6.50;;
10963;SDS011;5534;48.784;9.190;2023-01-30T01:04:20;13.93;;;7.03;;
10963;SDS011;5534;48.784;9.190;2023-01-30T01:06:46;10.17;;;6.47;;
10963;SDS011;5534;48.784;9.190;2023-01-30T01:09:11;9.33;;;6.27;;
10963;SDS011;5534;48.784;9.190;2023-01-30T01:11:37;10.57;;;6.47;;
10963;SDS011;5534;48.784;9.190;2023-01-30T01:14:03;12.83;;;6.47;;
10963;SDS011;5534;48.784;9.190;2023-01-30T01:16:30;11.10;;;6.87;;
10963;SDS011;5534;48.784;9.190;2023-01-30T01:18:57;11.50;;;6.73;;
10963;SDS011;5534;48.784;9.190;2023-01-30T01:21:23;10.40;;;7.13;;
10963;SDS011;5534;48.784;9.190;2023-01-30T01:23:50;11.50;;;6.23;;
10963;SDS011;5534;48.784;9.190;2023-01-30T01:26:16;11.10;;;7.20;;
10963;SDS011;5534;48.784;9.190;2023-01-30T01:28:42;12.27;;;6.90;;
10963;SDS011;5534;48.784;9.190;2023-01-30T01:31:12;11.90;;;6.53;;
10963;SDS011;5534;48.784;9.190;2023-01-30T01:33:40;11.57;;;7.57;;
10963;SDS011;5534;48.784;9.190;2023-01-30T01:36:06;11.73;;;6.23;;
10963;SDS011;5534;48.784;9.190;2023-01-30T01:38:32;10.87;;;7.07;;
10963;SDS011;5534;48.784;9.190;2023-01-30T01:40:58;11.03;;;7.53;;
10963;SDS011;5534;48.784;9.190;2023-01-30T01:43:34;13.07;;;7.43;;
10963;SDS011;5534;48.784;9.190;2023-01-30T01:46:05;13.93;;;7.00;;
10963;SDS011;5534;48.784;9.190;2023-01-30T01:48:37;9.90;;;6.60;;
10963;SDS011;5534;48.784;9.190;2023-01-30T01:51:16;11.43;;;6.83;;
10963;SDS011;5534;48.784;9.190;2023-01-30T01:53:48;8.27;;;6.07;;
10963;SDS011;5534;48.784;9.190;2023-01-30T01:56:20;11.93;;;6.77;;
10963;SDS011;5534;48.784;9.190;2023-01-30T01:58:48;11.53;;;6.63;;
10963;SDS011;5534;48.784;9.190;2023-01-30T02:01:17;12.13;;;6.77;;
10963;SDS011;5534;48.784;9.190;2023-01-30T02:03:44;10.07;;;6.80;;
10963;SDS011;5534;48.784;9.190;2023-01-30T02:06:14;11.07;;;6.67;;
10963;SDS011;5534;48.784;9.190;2023-01-30T02:08:49;8.33;;;6.00;;
10963;SDS011;5534;48.784;9.190;2023-01-30T02:11:28;13.60;;;7.10;;
10963;SDS011;5534;48.784;9.190;2023-01-30T02:14:02;11.23;;;6.73;;
10963;SDS011;5534;48.784;9.190;2023-01-30T02:16:30;10.73;;;6.93;;
10963;SDS011;5534;48.784;9.190;2023-01-30T02:18:56;9.63;;;6.53;;
10963;SDS011;5534;48.784;9.190;2023-01-30T02:21:57;11.90;;;6.90;;
10963;SDS011;5534;48.784;9.190;2023-01-30T02:33:06;10.07;;;6.50;;
10963;SDS011;5534;48.784;9.190;2023-01-30T02:46:59;9.63;;;6.37;;
10963;SDS011;5534;48.784;9.190;2023-01-30T02:49:28;10.53;;;6.83;;
10963;SDS011;5534;48.784;9.190;2023-01-30T02:51:59;12.03;;;7.27;;
10963;SDS011;5534;48.784;9.190;2023-01-30T02:54:27;10.07;;;7.30;;
10963;SDS011;5534;48.784;9.190;2023-01-30T02:56:56;9.60;;;6.47;;
10963;SDS011;5534;48.784;9.190;2023-01-30T02:59:31;13.00;;;7.10;;
10963;SDS011;5534;48.784;9.190;2023-01-30T03:10:41;10.67;;;7.20;;
10963;SDS011;5534;48.784;9.190;2023-01-30T03:13:48;8.90;;;6.07;;
10963;SDS011;5534;48.784;9.190;2023-01-30T03:18:49;11.33;;;6.63;;
10963;SDS011;5534;48.784;9.190;2023-01-30T03:21:15;10.80;;;6.80;;
10963;SDS011;5534;48.784;9.190;2023-01-30T03:23:43;9.60;;;6.80;;
10963;SDS011;5534;48.784;9.190;2023-01-30T03:26:12;13.00;;;7.30;;
10963;SDS011;5534;48.784;9.190;2023-01-30T03:28:44;11.33;;;7.20;;
10963;SDS011;5534;48.784;9.190;2023-01-30T03:31:12;10.77;;;7.10;;
10963;SDS011;5534;48.784;9.190;2023-01-30T03:33:38;11.47;;;6.93;;
10963;SDS011;5534;48.784;9.190;2023-01-30T03:36:04;10.97;;;7.20;;
10963;SDS011;5534;48.784;9.190;2023-01-30T03:38:30;10.03;;;6.60;;
10963;SDS011;5534;48.784;9.190;2023-01-30T03:40:56;10.43;;;6.77;;
10963;SDS011;5534;48.784;9.190;2023-01-30T03:43:21;11.37;;;6.10;;
10963;SDS011;5534;48.784;9.190;2023-01-30T03:45:47;11.13;;;6.30;;
10963;SDS011;5534;48.784;9.190;2023-01-30T03:48:13;10.67;;;6.20;;
10963;SDS011;5534;48.784;9.190;2023-01-30T03:50:39;11.40;;;6.50;;
10963;SDS011;5534;48.784;9.190;2023-01-30T03:53:04;11.73;;;6.53;;
10963;SDS011;5534;48.784;9.190;2023-01-30T03:55:30;10.10;;;6.03;;
10963;SDS011;5534;48.784;9.190;2023-01-30T03:57:56;9.63;;;6.20;;
10963;SDS011;5534;48.784;9.190;2023-01-30T04:00:22;10.10;;;6.43;;
10963;SDS011;5534;48.784;9.190;2023-01-30T04:02:48;11.00;;;6.60;;
10963;SDS011;5534;48.784;9.190;2023-01-30T04:05:14;11.27;;;6.50;;
10963;SDS011;5534;48.784;9.190;2023-01-30T04:07:40;9.87;;;6.23;;
10963;SDS011;5534;48.784;9.190;2023-01-30T04:10:06;9.67;;;5.77;;
10963;SDS011;5534;48.784;9.190;2023-01-30T04:12:32;12.20;;;6.50;;
10963;SDS011;5534;48.784;9.190;2023-01-30T04:14:58;8.80;;;5.50;;
10963;SDS011;5534;48.784;9.190;2023-01-30T04:17:24;9.83;;;6.13;;
10963;SDS011;5534;48.784;9.190;2023-01-30T04:19:49;9.50;;;6.27;;
10963;SDS011;5534;48.784;9.190;2023-01-30T04:22:15;9.67;;;5.97;;
10963;SDS011;5534;48.784;9.190;2023-01-30T04:24:41;8.97;;;6.10;;
10963;SDS011;5534;48.784;9.190;2023-01-30T04:27:06;9.57;;;5.70;;
10963;SDS011;5534;48.784;9.190;2023-01-30T04:29:33;9.23;;;6.43;;
10963;SDS011;5534;48.784;9.190;2023-01-30T04:31:59;8.93;;;5.90;;
10963;SDS011;5534;48.784;9.190;2023-01-30T04:34:25;9.10;;;5.57;;
10963;SDS011;5534;48.784;9.190;2023-01-30T04:36:50;8.93;;;6.00;;
10963;SDS011;5534;48.784;9.190;2023-01-30T04:39:16;10.83;;;6.20;;
10963;SDS011;5534;48.784;9.190;2023-01-30T04:41:42;8.63;;;5.60;;
10963;SDS011;5534;48.784;9.190;2023-01-30T04:44:08;8.33;;;5.13;;
10963;SDS011;5534;48.784;9.190;2023-01-30T04:46:33;8.80;;;5.40;;
10963;SDS011;5534;48.784;9.190;2023-01-30T04:48:59;9.40;;;5.40;;
10963;SDS011;5534;48.784;9.190;2023-01-30T04:51:25;8.83;;;5.10;;
10963;SDS011;5534;48.784;9.190;2023-01-30T04:53:51;7.73;;;5.07;;
10963;SDS011;5534;48.784;9.190;2023-01-30T04:56:16;9.10;;;5.57;;
10963;SDS011;5534;48.784;9.190;2023-01-30T04:58:42;10.20;;;5.23;;
10963;SDS011;5534;48.784;9.190;2023-01-30T05:01:12;8.77;;;4.83;;
10963;SDS011;5534;48.784;9.190;2023-01-30T05:03:38;9.53;;;5.80;;
10963;SDS011;5534;48.784;9.190;2023-01-30T05:06:03;10.13;;;5.37;;
10963;SDS011;5534;48.784;9.190;2023-01-30T05:08:30;8.70;;;5.30;;
10963;SDS011;5534;48.784;9.190;2023-01-30T05:10:56;7.43;;;4.93;;
10963;SDS011;5534;48.784;9.190;2023-01-30T05:13:22;9.33;;;4.97;;
10963;SDS011;5534;48.784;9.190;2023-01-30T05:15:47;10.07;;;5.87;;
10963;SDS011;5534;48.784;9.190;2023-01-30T05:18:13;8.57;;;5.10;;
10963;SDS011;5534;48.784;9.190;2023-01-30T05:20:39;10.17;;;5.37;;
10963;SDS011;5534;48.784;9.190;2023-01-30T05:23:04;7.57;;;5.60;;
10963;SDS011;5534;48.784;9.190;2023-01-30T05:25:30;7.70;;;5.00;;
10963;SDS011;5534;48.784;9.190;2023-01-30T05:27:59;8.90;;;5.57;;
10963;SDS011;5534;48.784;9.190;2023-01-30T05:30:24;11.00;;;5.50;;
10963;SDS011;5534;48.784;9.190;2023-01-30T05:32:50;8.43;;;4.93;;
10963;SDS011;5534;48.784;9.190;2023-01-30T05:35:16;9.57;;;5.13;;
10963;SDS011;5534;48.784;9.190;2023-01-30T05:37:41;8.90;;;4.93;;
10963;SDS011;5534;48.784;9.190;2023-01-30T05:40:07;7.00;;;4.50;;
10963;SDS011;5534;48.784;9.190;2023-01-30T05:42:33;7.17;;;5.20;;
10963;SDS011;5534;48.784;9.190;2023-01-30T05:44:59;10.37;;;4.90;;
10963;SDS011;5534;48.784;9.190;2023-01-30T05:47:25;11.20;;;5.50;;
10963;SDS011;5534;48.784;9.190;2023-01-30T05:49:51;7.17;;;4.67;;
10963;SDS011;5534;48.784;9.190;2023-01-30T05:52:17;8.97;;;5.77;;
10963;SDS011;5534;48.784;9.190;2023-01-30T05:54:42;8.60;;;5.17;;
10963;SDS011;5534;48.784;9.190;2023-01-30T05:57:08;9.40;;;4.90;;
10963;SDS011;5534;48.784;9.190;2023-01-30T05:59:34;8.07;;;4.93;;
10963;SDS011;5534;48.784;9.190;2023-01-30T06:02:00;8.27;;;5.70;;
10963;SDS011;5534;48.784;9.190;2023-01-30T06:04:26;8.23;;;4.97;;
10963;SDS011;5534;48.784;9.190;2023-01-30T06:06:52;9.10;;;5.33;;
10963;SDS011;5534;48.784;9.190;2023-01-30T06:09:17;8.63;;;4.73;;
10963;SDS011;5534;48.784;9.190;2023-01-30T06:11:43;10.30;;;5.70;;
10963;SDS011;5534;48.784;9.190;2023-01-30T06:14:09;8.73;;;4.97;;
10963;SDS011;5534;48.784;9.190;2023-01-30T06:16:35;8.07;;;5.13;;
10963;SDS011;5534;48.784;9.190;2023-01-30T06:19:00;7.43;;;4.83;;
10963;SDS011;5534;48.784;9.190;2023-01-30T06:21:26;8.90;;;5.27;;
10963;SDS011;5534;48.784;9.190;2023-01-30T06:23:52;8.47;;;4.83;;
10963;SDS011;5534;48.784;9.190;2023-01-30T06:26:17;9.10;;;5.47;;
10963;SDS011;5534;48.784;9.190;2023-01-30T06:28:43;9.07;;;5.30;;
10963;SDS011;5534;48.784;9.190;2023-01-30T06:31:09;10.67;;;5.27;;
10963;SDS011;5534;48.784;9.190;2023-01-30T06:33:34;8.80;;;5.10;;
10963;SDS011;5534;48.784;9.190;2023-01-30T06:36:00;8.53;;;4.83;;
10963;SDS011;5534;48.784;9.190;2023-01-30T06:38:26;9.07;;;5.50;;
10963;SDS011;5534;48.784;9.190;2023-01-30T06:40:52;7.43;;;4.87;;
10963;SDS011;5534;48.784;9.190;2023-01-30T06:43:18;12.13;;;5.53;;
10963;SDS011;5534;48.784;9.190;2023-01-30T06:45:44;9.90;;;4.80;;
10963;SDS011;5534;48.784;9.190;2023-01-30T06:48:10;9.23;;;5.53;;
10963;SDS011;5534;48.784;9.190;2023-01-30T06:50:35;9.60;;;4.70;;
10963;SDS011;5534;48.784;9.190;2023-01-30T06:53:03;10.13;;;5.20;;
10963;SDS011;5534;48.784;9.190;2023-01-30T06:55:31;8.20;;;5.10;;
10963;SDS011;5534;48.784;9.190;2023-01-30T06:58:02;13.00;;;5.33;;
10963;SDS011;5534;48.784;9.190;2023-01-30T07:00:30;10.07;;;5.07;;
10963;SDS011;5534;48.784;9.190;2023-01-30T07:02:56;11.23;;;5.70;;
10963;SDS011;5534;48.784;9.190;2023-01-30T07:05:22;7.63;;;4.73;;
10963;SDS011;5534;48.784;9.190;2023-01-30T07:07:48;8.97;;;5.03;;
10963;SDS011;5534;48.784;9.190;2023-01-30T07:10:13;12.47;;;5.80;;
10963;SDS011;5534;48.784;9.190;2023-01-30T07:12:39;11.37;;;6.50;;
10963;SDS011;5534;48.784;9.190;2023-01-30T07:15:05;9.63;;;5.87;;
10963;SDS011;5534;48.784;9.190;2023-01-30T07:17:32;8.93;;;5.90;;
10963;SDS011;5534;48.784;9.190;2023-01-30T07:19:58;9.77;;;5.93;;
10963;SDS011;5534;48.784;9.190;2023-01-30T07:22:24;8.77;;;5.00;;
10963;SDS011;5534;48.784;9.190;2023-01-30T07:24:49;9.30;;;5.10;;
10963;SDS011;5534;48.784;9.190;2023-01-30T07:27:15;15.37;;;5.43;;
10963;SDS011;5534;48.784;9.190;2023-01-30T07:29:41;7.60;;;4.83;;
10963;SDS011;5534;48.784;9.190;2023-01-30T07:32:12;11.90;;;5.00;;
10963;SDS011;5534;48.784;9.190;2023-01-30T07:34:40;8.30;;;4.80;;
10963;SDS011;5534;48.784;9.190;2023-01-30T07:37:06;7.43;;;4.80;;
10963;SDS011;5534;48.784;9.190;2023-01-30T07:39:33;8.03;;;4.57;;
10963;SDS011;5534;48.784;9.190;2023-01-30T07:41:59;9.50;;;5.07;;
10963;SDS011;5534;48.784;9.190;2023-01-30T07:44:26;9.63;;;5.30;;
10963;SDS011;5534;48.784;9.190;2023-01-30T07:46:52;5.77;;;3.83;;
10963;SDS011;5534;48.784;9.190;2023-01-30T07:49:17;7.07;;;4.60;;
10963;SDS011;5534;48.784;9.190;2023-01-30T07:51:43;8.23;;;4.80;;
10963;SDS011;5534;48.784;9.190;2023-01-30T07:54:09;11.33;;;4.97;;
10963;SDS011;5534;48.784;9.190;2023-01-30T07:56:35;11.63;;;6.90;;
10963;SDS011;5534;48.784;9.190;2023-01-30T07:59:01;8.10;;;4.47;;
10963;SDS011;5534;48.784;9.190;2023-01-30T08:01:27;6.93;;;4.40;;
10963;SDS011;5534;48.784;9.190;2023-01-30T08:03:53;8.23;;;4.67;;
10963;SDS011;5534;48.784;9.190;2023-01-30T08:06:19;7.77;;;4.47;;
10963;SDS011;5534;48.784;9.190;2023-01-30T08:08:44;9.17;;;4.80;;
10963;SDS011;5534;48.784;9.190;2023-01-30T08:11:10;6.70;;;4.30;;
10963;SDS011;5534;48.784;9.190;2023-01-30T08:13:36;7.90;;;4.43;;
10963;SDS011;5534;48.784;9.190;2023-01-30T08:16:02;6.60;;;4.00;;
10963;SDS011;5534;48.784;9.190;2023-01-30T08:18:30;5.70;;;4.13;;
10963;SDS011;5534;48.784;9.190;2023-01-30T08:21:01;6.20;;;4.10;;
10963;SDS011;5534;48.784;9.190;2023-01-30T08:23:30;8.10;;;4.50;;
10963;SDS011;5534;48.784;9.190;2023-01-30T08:25:57;8.20;;;4.00;;
10963;SDS011;5534;48.784;9.190;2023-01-30T08:28:26;5.27;;;3.77;;
10963;SDS011;5534;48.784;9.190;2023-01-30T08:30:53;6.03;;;4.27;;
10963;SDS011;5534;48.784;9.190;2023-01-30T08:33:19;9.77;;;5.60;;
10963;SDS011;5534;48.784;9.190;2023-01-30T08:35:45;9.53;;;4.87;;
10963;SDS011;5534;48.784;9.190;2023-01-30T08:38:11;10.83;;;5.63;;
10963;SDS011;5534;48.784;9.190;2023-01-30T08:40:37;7.57;;;5.23;;
10963;SDS011;5534;48.784;9.190;2023-01-30T08:43:04;9.33;;;4.63;;
10963;SDS011;5534;48.784;9.190;2023-01-30T08:45:30;8.90;;;4.97;;
10963;SDS011;5534;48.784;9.190;2023-01-30T08:47:59;9.00;;;5.40;;
10963;SDS011;5534;48.784;9.190;2023-01-30T08:50:27;8.17;;;5.23;;
10963;SDS011;5534;48.784;9.190;2023-01-30T08:52:53;7.53;;;4.60;;
10963;SDS011;5534;48.784;9.190;2023-01-30T08:55:20;8.20;;;4.60;;
10963;SDS011;5534;48.784;9.190;2023-01-30T08:57:46;8.07;;;4.70;;
10963;SDS011;5534;48.784;9.190;2023-01-30T09:00:13;12.83;;;5.20;;
10963;SDS011;5534;48.784;9.190;2023-01-30T09:02:39;8.20;;;4.13;;
10963;SDS011;5534;48.784;9.190;2023-01-30T09:05:05;6.27;;;4.53;;
10963;SDS011;5534;48.784;9.190;2023-01-30T09:07:33;5.90;;;3.93;;
10963;SDS011;5534;48.784;9.190;2023-01-30T09:09:58;7.80;;;4.30;;
10963;SDS011;5534;48.784;9.190;2023-01-30T09:12:24;5.60;;;4.13;;
10963;SDS011;5534;48.784;9.190;2023-01-30T09:14:51;8.53;;;4.20;;
10963;SDS011;5534;48.784;9.190;2023-01-30T09:17:23;6.67;;;4.07;;
10963;SDS011;5534;48.784;9.190;2023-01-30T09:19:49;7.90;;;3.97;;
10963;SDS011;5534;48.784;9.190;2023-01-30T09:22:15;6.77;;;3.87;;
10963;SDS011;5534;48.784;9.190;2023-01-30T09:24:42;7.73;;;3.60;;
10963;SDS011;5534;48.784;9.190;2023-01-30T09:27:08;5.00;;;3.83;;
10963;SDS011;5534;48.784;9.190;2023-01-30T09:29:34;5.87;;;3.47;;
10963;SDS011;5534;48.784;9.190;2023-01-30T09:31:59;7.27;;;4.13;;
10963;SDS011;5534;48.784;9.190;2023-01-30T09:34:25;5.40;;;3.43;;
10963;SDS011;5534;48.784;9.190;2023-01-30T09:36:59;6.57;;;3.73;;
10963;SDS011;5534;48.784;9.190;2023-01-30T09:39:26;7.93;;;3.83;;
10963;SDS011;5534;48.784;9.190;2023-01-30T09:47:19;3.97;;;3.13;;
10963;SDS011;5534;48.784;9.190;2023-01-30T09:53:01;6.73;;;3.57;;
10963;SDS011;5534;48.784;9.190;2023-01-30T09:55:38;5.23;;;3.10;;
10963;SDS011;5534;48.784;9.190;2023-01-30T09:58:12;9.13;;;3.70;;
10963;SDS011;5534;48.784;9.190;2023-01-30T10:00:45;9.00;;;3.50;;
10963;SDS011;5534;48.784;9.190;2023-01-30T10:03:19;4.73;;;3.30;;
10963;SDS011;5534;48.784;9.190;2023-01-30T10:06:06;9.50;;;2.97;;
10963;SDS011;5534;48.784;9.190;2023-01-30T10:08:56;4.83;;;2.90;;
10963;SDS011;5534;48.784;9.190;2023-01-30T10:27:52;5.53;;;2.67;;
10963;SDS011;5534;48.784;9.190;2023-01-30T10:30:25;3.60;;;2.47;;
10963;SDS011;5534;48.784;9.190;2023-01-30T10:32:52;4.00;;;2.47;;
10963;SDS011;5534;48.784;9.190;2023-01-30T10:35:26;7.60;;;2.47;;
10963;SDS011;5534;48.784;9.190;2023-01-30T10:46:01;2.83;;;2.10;;
10963;SDS011;5534;48.784;9.190;2023-01-30T10:54:31;3.57;;;1.97;;
10963;SDS011;5534;48.784;9.190;2023-01-30T11:00:33;3.90;;;1.97;;
10963;SDS011;5534;48.784;9.190;2023-01-30T11:08:24;2.60;;;2.03;;
10963;SDS011;5534;48.784;9.190;2023-01-30T11:10:55;1.67;;;1.30;;
10963;SDS011;5534;48.784;9.190;2023-01-30T11:13:23;3.07;;;1.87;;
10963;SDS011;5534;48.784;9.190;2023-01-30T11:15:57;1.90;;;1.43;;
10963;SDS011;5534;48.784;9.190;2023-01-30T11:18:27;2.23;;;1.67;;
10963;SDS011;5534;48.784;9.190;2023-01-30T11:20:57;3.83;;;1.50;;
10963;SDS011;5534;48.784;9.190;2023-01-30T11:23:31;3.50;;;2.20;;
10963;SDS011;5534;48.784;9.190;2023-01-30T11:26:04;6.97;;;3.63;;
10963;SDS011;5534;48.784;9.190;2023-01-30T11:28:34;3.33;;;2.53;;
10963;SDS011;5534;48.784;9.190;2023-01-30T11:31:05;3.10;;;1.90;;
10963;SDS011;5534;48.784;9.190;2023-01-30T11:33:42;5.03;;;2.50;;
10963;SDS011;5534;48.784;9.190;2023-01-30T11:36:28;2.83;;;1.77;;
10963;SDS011;5534;48.784;9.190;2023-01-30T11:38:59;3.30;;;2.17;;
10963;SDS011;5534;48.784;9.190;2023-01-30T11:41:28;2.77;;;2.13;;
10963;SDS011;5534;48.784;9.190;2023-01-30T11:44:01;3.50;;;2.40;;
10963;SDS011;5534;48.784;9.190;2023-01-30T11:46:36;3.97;;;2.83;;
10963;SDS011;5534;48.784;9.190;2023-01-30T11:49:09;6.20;;;3.90;;
10963;SDS011;5534;48.784;9.190;2023-01-30T11:51:36;5.63;;;2.87;;
10963;SDS011;5534;48.784;9.190;2023-01-30T11:54:07;5.10;;;2.20;;
10963;SDS011;5534;48.784;9.190;2023-01-30T11:56:50;5.53;;;2.60;;
10963;SDS011;5534;48.784;9.190;2023-01-30T12:01:44;3.40;;;2.27;;
10963;SDS011;5534;48.784;9.190;2023-01-30T12:04:10;3.70;;;2.60;;
10963;SDS011;5534;48.784;9.190;2023-01-30T12:06:38;4.63;;;2.67;;
10963;SDS011;5534;48.784;9.190;2023-01-30T12:09:29;3.87;;;2.60;;
10963;SDS011;5534;48.784;9.190;2023-01-30T12:12:02;5.50;;;2.80;;
10963;SDS011;5534;48.784;9.190;2023-01-30T12:14:53;3.50;;;2.70;;
10963;SDS011;5534;48.784;9.190;2023-01-30T12:18:13;4.93;;;3.63;;
10963;SDS011;5534;48.784;9.190;2023-01-30T12:20:22;3.80;;;2.50;;
10963;SDS011;5534;48.784;9.190;2023-01-30T12:26:01;3.50;;;2.40;;
10963;SDS011;5534;48.784;9.190;2023-01-30T12:34:08;5.83;;;2.90;;
10963;SDS011;5534;48.784;9.190;2023-01-30T12:45:22;3.97;;;2.33;;
10963;SDS011;5534;48.784;9.190;2023-01-30T12:59:04;4.87;;;3.30;;
10963;SDS011;5534;48.784;9.190;2023-01-30T13:01:40;5.40;;;2.37;;
10963;SDS011;5534;48.784;9.190;2023-01-30T13:09:38;4.33;;;2.77;;
10963;SDS011;5534;48.784;9.190;2023-01-30T13:12:12;4.07;;;2.67;;
10963;SDS011;5534;48.784;9.190;2023-01-30T13:15:06;7.97;;;3.00;;
10963;SDS011;5534;48.784;9.190;2023-01-30T13:18:09;3.77;;;2.47;;
10963;SDS011;5534;48.784;9.190;2023-01-30T13:20:42;4.20;;;3.03;;
10963;SDS011;5534;48.784;9.190;2023-01-30T13:23:32;7.97;;;2.83;;
10963;SDS011;5534;48.784;9.190;2023-01-30T13:26:28;6.57;;;2.80;;
10963;SDS011;5534;48.784;9.190;2023-01-30T13:29:04;5.67;;;2.60;;
10963;SDS011;5534;48.784;9.190;2023-01-30T13:31:34;4.50;;;2.53;;
10963;SDS011;5534;48.784;9.190;2023-01-30T13:34:09;5.87;;;2.77;;
10963;SDS011;5534;48.784;9.190;2023-01-30T13:37:01;3.47;;;2.40;;
10963;SDS011;5534;48.784;9.190;2023-01-30T13:42:17;5.13;;;2.70;;
10963;SDS011;5534;48.784;9.190;2023-01-30T13:45:05;5.70;;;2.67;;
10963;SDS011;5534;48.784;9.190;2023-01-30T13:50:19;6.77;;;2.63;;
10963;SDS011;5534;48.784;9.190;2023-01-30T13:52:54;3.97;;;2.30;;
10963;SDS011;5534;48.784;9.190;2023-01-30T13:55:50;7.07;;;2.43;;
10963;SDS011;5534;48.784;9.190;2023-01-30T14:01:11;4.23;;;2.53;;
10963;SDS011;5534;48.784;9.190;2023-01-30T14:03:38;3.10;;;1.37;;
10963;SDS011;5534;48.784;9.190;2023-01-30T14:06:12;3.70;;;2.60;;
10963;SDS011;5534;48.784;9.190;2023-01-30T14:09:17;3.73;;;1.50;;
10963;SDS011;5534;48.784;9.190;2023-01-30T14:11:48;1.37;;;1.20;;
10963;SDS011;5534;48.784;9.190;2023-01-30T14:14:23;1.50;;;1.23;;
10963;SDS011;5534;48.784;9.190;2023-01-30T14:16:56;2.17;;;1.10;;
10963;SDS011;5534;48.784;9.190;2023-01-30T14:20:34;2.50;;;1.30;;
10963;SDS011;5534;48.784;9.190;2023-01-30T14:33:48;1.20;;;1.00;;
10963;SDS011;5534;48.784;9.190;2023-01-30T14:38:27;1.03;;;0.80;;
10963;SDS011;5534;48.784;9.190;2023-01-30T15:07:26;2.33;;;1.20;;
10963;SDS011;5534;48.784;9.190;2023-01-30T15:18:30;2.07;;;1.40;;
10963;SDS011;5534;48.784;9.190;2023-01-30T15:21:18;2.90;;;1.60;;
10963;SDS011;5534;48.784;9.190;2023-01-30T15:26:35;2.10;;;1.40;;
10963;SDS011;5534;48.784;9.190;2023-01-30T15:29:38;3.13;;;1.60;;
10963;SDS011;5534;48.784;9.190;2023-01-30T15:32:27;2.33;;;1.83;;
10963;SDS011;5534;48.784;9.190;2023-01-30T15:34:59;2.80;;;1.80;;
10963;SDS011;5534;48.784;9.190;2023-01-30T15:40:38;2.20;;;1.60;;
10963;SDS011;5534;48.784;9.190;2023-01-30T15:48:37;2.73;;;1.70;;
10963;SDS011;5534;48.784;9.190;2023-01-30T15:51:27;3.17;;;1.90;;
10963;SDS011;5534;48.784;9.190;2023-01-30T15:53:55;3.43;;;1.70;;
10963;SDS011;5534;48.784;9.190;2023-01-30T15:56:22;3.97;;;2.10;;
10963;SDS011;5534;48.784;9.190;2023-01-30T15:58:52;2.37;;;1.80;;
10963;SDS011;5534;48.784;9.190;2023-01-30T16:01:22;3.60;;;1.87;;
10963;SDS011;5534;48.784;9.190;2023-01-30T16:03:49;3.97;;;1.97;;
10963;SDS011;5534;48.784;9.190;2023-01-30T16:06:50;4.33;;;1.97;;
10963;SDS011;5534;48.784;9.190;2023-01-30T16:09:22;2.37;;;1.80;;
10963;SDS011;5534;48.784;9.190;2023-01-30T16:11:49;3.93;;;1.90;;
10963;SDS011;5534;48.784;9.190;2023-01-30T16:14:16;4.17;;;1.93;;
10963;SDS011;5534;48.784;9.190;2023-01-30T16:16:55;2.73;;;1.93;;
10963;SDS011;5534;48.784;9.190;2023-01-30T16:19:28;3.03;;;1.93;;
10963;SDS011;5534;48.784;9.190;2023-01-30T16:22:00;3.27;;;2.00;;
10963;SDS011;5534;48.784;9.190;2023-01-30T16:24:30;3.87;;;2.20;;
10963;SDS011;5534;48.784;9.190;2023-01-30T16:26:58;3.10;;;2.10;;
10963;SDS011;5534;48.784;9.190;2023-01-30T16:29:45;3.10;;;2.20;;
10963;SDS011;5534;48.784;9.190;2023-01-30T16:32:17;2.20;;;1.80;;
10963;SDS011;5534;48.784;9.190;2023-01-30T16:37:41;2.53;;;1.90;;
10963;SDS011;5534;48.784;9.190;2023-01-30T16:42:35;3.30;;;2.33;;
10963;SDS011;5534;48.784;9.190;2023-01-30T16:47:36;2.80;;;1.97;;
10963;SDS011;5534;48.784;9.190;2023-01-30T16:50:03;4.57;;;2.65;;
10963;SDS011;5534;48.784;9.190;2023-01-30T16:52:45;2.60;;;2.10;;
10963;SDS011;5534;48.784;9.190;2023-01-30T16:55:22;2.80;;;2.00;;
10963;SDS011;5534;48.784;9.190;2023-01-30T16:57:53;2.83;;;1.90;;
10963;SDS011;5534;48.784;9.190;2023-01-30T17:03:00;4.60;;;1.87;;
10963;SDS011;5534;48.784;9.190;2023-01-30T17:05:38;3.37;;;1.90;;
10963;SDS011;5534;48.784;9.190;2023-01-30T17:10:54;4.63;;;2.40;;
10963;SDS011;5534;48.784;9.190;2023-01-30T17:13:28;5.50;;;2.60;;
10963;SDS011;5534;48.784;9.190;2023-01-30T17:18:49;4.30;;;2.10;;
10963;SDS011;5534;48.784;9.190;2023-01-30T17:21:16;5.67;;;2.40;;
10963;SDS011;5534;48.784;9.190;2023-01-30T17:23:47;4.70;;;2.70;;
10963;SDS011;5534;48.784;9.190;2023-01-30T17:26:16;3.77;;;2.43;;
10963;SDS011;5534;48.784;9.190;2023-01-30T17:28:42;3.90;;;2.27;;
10963;SDS011;5534;48.784;9.190;2023-01-30T17:31:11;3.77;;;2.20;;
10963;SDS011;5534;48.784;9.190;2023-01-30T17:33:38;4.37;;;2.50;;
10963;SDS011;5534;48.784;9.190;2023-01-30T17:36:05;4.27;;;2.20;;
10963;SDS011;5534;48.784;9.190;2023-01-30T17:38:39;4.97;;;2.40;;
10963;SDS011;5534;48.784;9.190;2023-01-30T17:41:05;6.27;;;2.90;;
10963;SDS011;5534;48.784;9.190;2023-01-30T17:43:33;3.53;;;1.90;;
10963;SDS011;5534;48.784;9.190;2023-01-30T17:45:59;5.13;;;2.03;;
10963;SDS011;5534;48.784;9.190;2023-01-30T17:48:26;6.07;;;2.70;;
10963;SDS011;5534;48.784;9.190;2023-01-30T17:50:52;5.23;;;2.37;;
10963;SDS011;5534;48.784;9.190;2023-01-30T17:53:17;2.97;;;2.07;;
10963;SDS011;5534;48.784;9.190;2023-01-30T17:55:43;6.53;;;3.07;;
10963;SDS011;5534;48.784;9.190;2023-01-30T17:58:10;4.03;;;2.13;;
10963;SDS011;5534;48.784;9.190;2023-01-30T18:00:41;3.50;;;2.00;;
10963;SDS011;5534;48.784;9.190;2023-01-30T18:03:06;5.83;;;2.50;;
10963;SDS011;5534;48.784;9.190;2023-01-30T18:05:32;2.87;;;2.20;;
10963;SDS011;5534;48.784;9.190;2023-01-30T18:07:58;4.47;;;2.40;;
10963;SDS011;5534;48.784;9.190;2023-01-30T18:10:24;4.77;;;2.57;;
10963;SDS011;5534;48.784;9.190;2023-01-30T18:12:50;3.60;;;1.97;;
10963;SDS011;5534;48.784;9.190;2023-01-30T18:15:15;3.47;;;2.03;;
10963;SDS011;5534;48.784;9.190;2023-01-30T18:17:42;3.90;;;2.37;;
10963;SDS011;5534;48.784;9.190;2023-01-30T18:20:10;4.40;;;2.33;;
10963;SDS011;5534;48.784;9.190;2023-01-30T18:22:38;3.67;;;2.20;;
10963;SDS011;5534;48.784;9.190;2023-01-30T18:25:03;4.10;;;2.23;;
10963;SDS011;5534;48.784;9.190;2023-01-30T18:27:30;3.43;;;2.20;;
10963;SDS011;5534;48.784;9.190;2023-01-30T18:29:55;4.33;;;2.40;;
10963;SDS011;5534;48.784;9.190;2023-01-30T18:32:21;3.90;;;2.30;;